Details for Flydubai at OMDW




Go Back


Latest METAR
Local Time

OMDW 241300Z 19012KT 8000 NSC 34/12 Q1007 NOSIG

24/02/2018, 17:34:49

Description
Results
Flydubai Logo
Number of Pilots based at OMDW
0 Pilots Based here
Number of Flydubai Flights Departed from OMDW
0 Flights Departed
Number of Flydubai Flights Arrived at OMDW
0 Flights Arrived
Number of Flydubai Schedules Departing from OMDW
19 Schedules
Number of Flydubai Schedules Arriving at OMDW
19 Schedules
Number of Flydubai Schedules Departing from OMDW availible today
12 Schedules Today
Number of Flydubai Schedules Arriving at OMDW availible today
12 Schedules Today
Average Landing Rate at OMDW
0 fpm
Flydubai Average Landing Rate at OMDW
0 fpm
Total Fuel Purchased at OMDW by Flydubai
0.00 kgs / 0.00 lbs

Pilots Based at OMDW


Pilot ID
Pilot Name
Pilot Rank
No. of Flights
No. of Flying Hours
There are no pilots assigned to this hub!   Will you be the first?
Content